Bunker Hill, Indiana
Current Conditions -  °F | °C
As of 8:58 PM on Wednesday 22 Oct 2014 (Local Time) from KGUS Reporting Station
Clear Clear  
Wind Chill: 43°   Ceiling: Unl
Heat Index: 46°   Visibility: 10mi
Dew Point: 43°   Wind: 6mph
Humidity: 88%   Direction: 100°E
Pressure: 30.26"   Gusts: NA
Location:  40.66°N, 86.1°W
Report Text: KGUS 230058Z 10005KT 10SM CLR 08/06 A3026 RMK AO2A SLP256 T00780060
Loading
Personal Weather Stations






























Interactive Weather Map
Tropical Storm Tracking
New forecast layout! Learn more

10-Day Weather Forecast

Advertisements
Track Severe Weather on mobile